sensor_id;sensor_type;location;lat;lon;timestamp;temperature;humidity
78297;DHT22;67555;47.660;19.622;2023-07-31T00:01:55;17.50;87.30
78297;DHT22;67555;47.660;19.622;2023-07-31T00:04:22;17.40;87.30
78297;DHT22;67555;47.660;19.622;2023-07-31T00:06:48;17.40;87.30
78297;DHT22;67555;47.660;19.622;2023-07-31T00:09:14;17.40;87.20
78297;DHT22;67555;47.660;19.622;2023-07-31T00:11:39;17.40;87.10
78297;DHT22;67555;47.660;19.622;2023-07-31T00:14:05;17.50;87.00
78297;DHT22;67555;47.660;19.622;2023-07-31T00:16:31;17.50;86.90
78297;DHT22;67555;47.660;19.622;2023-07-31T00:18:56;17.50;86.60
78297;DHT22;67555;47.660;19.622;2023-07-31T00:21:22;17.50;86.20
78297;DHT22;67555;47.660;19.622;2023-07-31T00:23:48;17.50;86.00
78297;DHT22;67555;47.660;19.622;2023-07-31T00:26:14;17.50;85.90
78297;DHT22;67555;47.660;19.622;2023-07-31T00:28:39;17.50;85.70
78297;DHT22;67555;47.660;19.622;2023-07-31T00:31:05;17.50;85.40
78297;DHT22;67555;47.660;19.622;2023-07-31T00:33:31;17.50;85.30
78297;DHT22;67555;47.660;19.622;2023-07-31T00:35:57;17.50;85.10
78297;DHT22;67555;47.660;19.622;2023-07-31T00:38:23;17.50;85.10
78297;DHT22;67555;47.660;19.622;2023-07-31T00:40:49;17.50;85.10
78297;DHT22;67555;47.660;19.622;2023-07-31T00:43:14;17.50;85.10
78297;DHT22;67555;47.660;19.622;2023-07-31T00:45:40;17.50;85.20
78297;DHT22;67555;47.660;19.622;2023-07-31T00:48:07;17.50;85.30
78297;DHT22;67555;47.660;19.622;2023-07-31T00:50:33;17.40;85.40
78297;DHT22;67555;47.660;19.622;2023-07-31T00:53:00;17.40;85.60
78297;DHT22;67555;47.660;19.622;2023-07-31T00:55:26;17.40;85.80
78297;DHT22;67555;47.660;19.622;2023-07-31T00:57:52;17.20;85.80
78297;DHT22;67555;47.660;19.622;2023-07-31T01:00:18;17.20;86.00
78297;DHT22;67555;47.660;19.622;2023-07-31T01:02:44;17.20;86.20
78297;DHT22;67555;47.660;19.622;2023-07-31T01:05:10;17.20;86.20
78297;DHT22;67555;47.660;19.622;2023-07-31T01:08:04;17.00;86.20
78297;DHT22;67555;47.660;19.622;2023-07-31T01:10:42;17.00;86.20
78297;DHT22;67555;47.660;19.622;2023-07-31T01:13:11;17.00;86.30
78297;DHT22;67555;47.660;19.622;2023-07-31T01:15:36;16.90;86.50
78297;DHT22;67555;47.660;19.622;2023-07-31T01:18:04;16.90;86.60
78297;DHT22;67555;47.660;19.622;2023-07-31T01:20:30;16.90;86.80
78297;DHT22;67555;47.660;19.622;2023-07-31T01:28:02;16.80;87.10
78297;DHT22;67555;47.660;19.622;2023-07-31T01:30:32;16.80;87.10
78297;DHT22;67555;47.660;19.622;2023-07-31T01:33:03;16.80;87.00
78297;DHT22;67555;47.660;19.622;2023-07-31T01:35:36;16.80;87.10
78297;DHT22;67555;47.660;19.622;2023-07-31T01:38:02;16.80;87.10
78297;DHT22;67555;47.660;19.622;2023-07-31T01:40:28;16.80;87.00
78297;DHT22;67555;47.660;19.622;2023-07-31T01:42:54;16.80;87.00
78297;DHT22;67555;47.660;19.622;2023-07-31T01:45:20;16.80;87.00
78297;DHT22;67555;47.660;19.622;2023-07-31T01:47:46;16.80;86.90
78297;DHT22;67555;47.660;19.622;2023-07-31T01:50:11;16.80;86.80
78297;DHT22;67555;47.660;19.622;2023-07-31T01:52:37;16.80;86.80
78297;DHT22;67555;47.660;19.622;2023-07-31T01:55:03;16.80;86.70
78297;DHT22;67555;47.660;19.622;2023-07-31T01:57:29;16.80;86.60
78297;DHT22;67555;47.660;19.622;2023-07-31T01:59:54;16.80;86.50
78297;DHT22;67555;47.660;19.622;2023-07-31T02:02:21;16.90;86.30
78297;DHT22;67555;47.660;19.622;2023-07-31T02:04:48;17.00;85.90
78297;DHT22;67555;47.660;19.622;2023-07-31T02:07:15;17.00;85.60
78297;DHT22;67555;47.660;19.622;2023-07-31T02:09:41;17.10;85.30
78297;DHT22;67555;47.660;19.622;2023-07-31T02:12:07;17.10;85.00
78297;DHT22;67555;47.660;19.622;2023-07-31T02:14:34;17.20;84.80
78297;DHT22;67555;47.660;19.622;2023-07-31T02:17:03;17.20;84.50
78297;DHT22;67555;47.660;19.622;2023-07-31T02:19:28;17.20;84.30
78297;DHT22;67555;47.660;19.622;2023-07-31T02:21:54;17.20;84.10
78297;DHT22;67555;47.660;19.622;2023-07-31T02:24:20;17.20;83.90
78297;DHT22;67555;47.660;19.622;2023-07-31T02:26:46;17.20;83.90
78297;DHT22;67555;47.660;19.622;2023-07-31T02:29:11;17.30;83.70
78297;DHT22;67555;47.660;19.622;2023-07-31T02:31:37;17.20;83.70
78297;DHT22;67555;47.660;19.622;2023-07-31T02:34:03;17.20;83.70
78297;DHT22;67555;47.660;19.622;2023-07-31T02:36:28;17.20;83.70
78297;DHT22;67555;47.660;19.622;2023-07-31T02:38:54;17.10;83.90
78297;DHT22;67555;47.660;19.622;2023-07-31T02:41:20;17.10;83.90
78297;DHT22;67555;47.660;19.622;2023-07-31T02:43:46;17.00;84.00
78297;DHT22;67555;47.660;19.622;2023-07-31T02:46:12;17.00;84.00
78297;DHT22;67555;47.660;19.622;2023-07-31T02:48:38;17.00;84.10
78297;DHT22;67555;47.660;19.622;2023-07-31T02:51:03;17.00;84.00
78297;DHT22;67555;47.660;19.622;2023-07-31T02:53:29;17.10;83.60
78297;DHT22;67555;47.660;19.622;2023-07-31T02:55:55;17.20;83.30
78297;DHT22;67555;47.660;19.622;2023-07-31T02:58:20;17.20;83.10
78297;DHT22;67555;47.660;19.622;2023-07-31T03:00:46;17.20;82.90
78297;DHT22;67555;47.660;19.622;2023-07-31T03:03:12;17.20;82.70
78297;DHT22;67555;47.660;19.622;2023-07-31T03:05:37;17.30;82.60
78297;DHT22;67555;47.660;19.622;2023-07-31T03:08:03;17.30;82.50
78297;DHT22;67555;47.660;19.622;2023-07-31T03:10:29;17.20;82.50
78297;DHT22;67555;47.660;19.622;2023-07-31T03:12:55;17.20;82.70
78297;DHT22;67555;47.660;19.622;2023-07-31T03:15:21;17.00;82.90
78297;DHT22;67555;47.660;19.622;2023-07-31T03:17:46;17.00;83.20
78297;DHT22;67555;47.660;19.622;2023-07-31T03:20:12;17.00;83.20
78297;DHT22;67555;47.660;19.622;2023-07-31T03:22:38;17.00;83.20
78297;DHT22;67555;47.660;19.622;2023-07-31T03:25:04;17.00;83.30
78297;DHT22;67555;47.660;19.622;2023-07-31T03:27:29;17.00;83.40
78297;DHT22;67555;47.660;19.622;2023-07-31T03:29:55;16.90;83.60
78297;DHT22;67555;47.660;19.622;2023-07-31T03:32:21;17.00;83.50
78297;DHT22;67555;47.660;19.622;2023-07-31T03:34:47;17.00;83.40
78297;DHT22;67555;47.660;19.622;2023-07-31T03:37:12;17.00;83.30
78297;DHT22;67555;47.660;19.622;2023-07-31T03:39:38;16.90;83.30
78297;DHT22;67555;47.660;19.622;2023-07-31T03:42:04;16.90;83.40
78297;DHT22;67555;47.660;19.622;2023-07-31T03:44:30;16.80;83.50
78297;DHT22;67555;47.660;19.622;2023-07-31T03:46:55;16.80;83.60
78297;DHT22;67555;47.660;19.622;2023-07-31T03:49:21;16.80;83.50
78297;DHT22;67555;47.660;19.622;2023-07-31T03:51:47;16.90;83.60
78297;DHT22;67555;47.660;19.622;2023-07-31T03:54:12;17.00;83.30
78297;DHT22;67555;47.660;19.622;2023-07-31T03:56:39;17.00;83.20
78297;DHT22;67555;47.660;19.622;2023-07-31T03:59:05;17.00;83.10
78297;DHT22;67555;47.660;19.622;2023-07-31T04:01:30;17.00;83.00
78297;DHT22;67555;47.660;19.622;2023-07-31T04:03:56;17.00;83.00
78297;DHT22;67555;47.660;19.622;2023-07-31T04:06:22;17.20;82.80
78297;DHT22;67555;47.660;19.622;2023-07-31T04:08:47;17.20;82.60
78297;DHT22;67555;47.660;19.622;2023-07-31T04:11:13;17.40;82.30
78297;DHT22;67555;47.660;19.622;2023-07-31T04:13:40;17.50;82.10
78297;DHT22;67555;47.660;19.622;2023-07-31T04:16:06;17.60;81.80
78297;DHT22;67555;47.660;19.622;2023-07-31T04:18:31;17.80;81.60
78297;DHT22;67555;47.660;19.622;2023-07-31T04:20:58;17.80;81.50
78297;DHT22;67555;47.660;19.622;2023-07-31T04:23:25;17.90;81.50
78297;DHT22;67555;47.660;19.622;2023-07-31T04:25:52;17.90;81.50
78297;DHT22;67555;47.660;19.622;2023-07-31T04:28:17;17.80;81.80
78297;DHT22;67555;47.660;19.622;2023-07-31T04:30:43;17.90;82.10
78297;DHT22;67555;47.660;19.622;2023-07-31T04:33:09;18.00;82.20
78297;DHT22;67555;47.660;19.622;2023-07-31T04:35:34;18.20;82.10
78297;DHT22;67555;47.660;19.622;2023-07-31T04:38:00;18.40;81.80
78297;DHT22;67555;47.660;19.622;2023-07-31T04:40:26;18.50;81.80
78297;DHT22;67555;47.660;19.622;2023-07-31T04:42:52;18.50;81.80
78297;DHT22;67555;47.660;19.622;2023-07-31T04:45:17;18.60;81.80
78297;DHT22;67555;47.660;19.622;2023-07-31T04:47:43;18.70;81.60
78297;DHT22;67555;47.660;19.622;2023-07-31T04:50:09;18.90;81.50
78297;DHT22;67555;47.660;19.622;2023-07-31T04:52:35;19.00;81.20
78297;DHT22;67555;47.660;19.622;2023-07-31T04:55:01;19.10;81.00
78297;DHT22;67555;47.660;19.622;2023-07-31T04:57:27;19.30;80.70
78297;DHT22;67555;47.660;19.622;2023-07-31T04:59:52;19.50;80.40
78297;DHT22;67555;47.660;19.622;2023-07-31T05:02:18;19.60;80.00
78297;DHT22;67555;47.660;19.622;2023-07-31T05:04:44;19.80;79.70
78297;DHT22;67555;47.660;19.622;2023-07-31T05:07:10;20.00;79.30
78297;DHT22;67555;47.660;19.622;2023-07-31T05:09:35;20.10;79.00
78297;DHT22;67555;47.660;19.622;2023-07-31T05:12:01;20.30;78.70
78297;DHT22;67555;47.660;19.622;2023-07-31T05:14:27;20.30;78.30
78297;DHT22;67555;47.660;19.622;2023-07-31T05:16:52;20.30;78.60
78297;DHT22;67555;47.660;19.622;2023-07-31T05:19:18;20.30;78.70
78297;DHT22;67555;47.660;19.622;2023-07-31T05:21:44;20.30;78.80
78297;DHT22;67555;47.660;19.622;2023-07-31T05:24:10;20.40;78.70
78297;DHT22;67555;47.660;19.622;2023-07-31T05:26:36;20.50;78.50
78297;DHT22;67555;47.660;19.622;2023-07-31T05:29:03;20.50;78.40
78297;DHT22;67555;47.660;19.622;2023-07-31T05:31:29;20.60;78.30
78297;DHT22;67555;47.660;19.622;2023-07-31T05:33:55;20.50;78.00
78297;DHT22;67555;47.660;19.622;2023-07-31T05:36:21;20.50;78.10
78297;DHT22;67555;47.660;19.622;2023-07-31T05:38:46;20.50;78.10
78297;DHT22;67555;47.660;19.622;2023-07-31T05:41:12;20.50;78.20
78297;DHT22;67555;47.660;19.622;2023-07-31T05:43:38;20.50;78.10
78297;DHT22;67555;47.660;19.622;2023-07-31T05:46:04;20.60;78.00
78297;DHT22;67555;47.660;19.622;2023-07-31T05:48:32;20.60;78.10
78297;DHT22;67555;47.660;19.622;2023-07-31T05:50:59;20.70;78.10
78297;DHT22;67555;47.660;19.622;2023-07-31T05:53:25;20.70;77.80
78297;DHT22;67555;47.660;19.622;2023-07-31T05:55:51;20.70;77.60
78297;DHT22;67555;47.660;19.622;2023-07-31T05:58:17;20.70;77.40
78297;DHT22;67555;47.660;19.622;2023-07-31T06:00:42;20.80;77.50
78297;DHT22;67555;47.660;19.622;2023-07-31T06:03:08;20.80;77.00
78297;DHT22;67555;47.660;19.622;2023-07-31T06:05:34;20.70;77.10
78297;DHT22;67555;47.660;19.622;2023-07-31T06:08:00;20.80;77.00
78297;DHT22;67555;47.660;19.622;2023-07-31T06:10:26;20.80;77.00
78297;DHT22;67555;47.660;19.622;2023-07-31T06:12:52;20.90;76.50
78297;DHT22;67555;47.660;19.622;2023-07-31T06:15:18;20.90;76.00
78297;DHT22;67555;47.660;19.622;2023-07-31T06:17:47;20.90;75.40
78297;DHT22;67555;47.660;19.622;2023-07-31T06:20:13;20.90;75.40
78297;DHT22;67555;47.660;19.622;2023-07-31T06:22:39;20.90;75.00
78297;DHT22;67555;47.660;19.622;2023-07-31T06:25:05;20.90;74.50
78297;DHT22;67555;47.660;19.622;2023-07-31T06:27:32;21.00;73.70
78297;DHT22;67555;47.660;19.622;2023-07-31T06:29:58;21.00;73.70
78297;DHT22;67555;47.660;19.622;2023-07-31T06:32:24;21.10;73.00
78297;DHT22;67555;47.660;19.622;2023-07-31T06:34:49;21.10;72.20
78297;DHT22;67555;47.660;19.622;2023-07-31T06:37:16;21.10;70.90
78297;DHT22;67555;47.660;19.622;2023-07-31T06:39:42;21.20;70.50
78297;DHT22;67555;47.660;19.622;2023-07-31T06:42:07;21.30;70.50
78297;DHT22;67555;47.660;19.622;2023-07-31T06:44:33;21.50;70.50
78297;DHT22;67555;47.660;19.622;2023-07-31T06:46:59;21.50;69.80
78297;DHT22;67555;47.660;19.622;2023-07-31T06:49:24;21.70;69.40
78297;DHT22;67555;47.660;19.622;2023-07-31T06:51:50;21.70;66.60
78297;DHT22;67555;47.660;19.622;2023-07-31T06:54:16;21.70;67.60
78297;DHT22;67555;47.660;19.622;2023-07-31T06:56:41;21.60;66.30
78297;DHT22;67555;47.660;19.622;2023-07-31T06:59:07;21.50;65.80
78297;DHT22;67555;47.660;19.622;2023-07-31T07:01:33;21.50;66.00
78297;DHT22;67555;47.660;19.622;2023-07-31T07:03:59;21.50;66.50
78297;DHT22;67555;47.660;19.622;2023-07-31T07:06:24;21.70;65.70
78297;DHT22;67555;47.660;19.622;2023-07-31T07:08:50;21.70;65.10
78297;DHT22;67555;47.660;19.622;2023-07-31T07:11:16;21.70;64.00
78297;DHT22;67555;47.660;19.622;2023-07-31T07:13:41;21.70;63.80
78297;DHT22;67555;47.660;19.622;2023-07-31T07:16:07;21.70;64.30
78297;DHT22;67555;47.660;19.622;2023-07-31T07:18:33;21.70;63.60
78297;DHT22;67555;47.660;19.622;2023-07-31T07:20:59;21.90;63.80
78297;DHT22;67555;47.660;19.622;2023-07-31T07:23:27;21.90;63.20
78297;DHT22;67555;47.660;19.622;2023-07-31T07:25:52;22.00;63.00
78297;DHT22;67555;47.660;19.622;2023-07-31T07:28:18;22.10;62.60
78297;DHT22;67555;47.660;19.622;2023-07-31T07:30:44;22.20;62.50
78297;DHT22;67555;47.660;19.622;2023-07-31T07:33:10;22.20;62.20
78297;DHT22;67555;47.660;19.622;2023-07-31T07:35:36;22.30;61.80
78297;DHT22;67555;47.660;19.622;2023-07-31T07:38:02;22.20;61.70
78297;DHT22;67555;47.660;19.622;2023-07-31T07:40:28;22.30;61.80
78297;DHT22;67555;47.660;19.622;2023-07-31T07:42:54;22.30;61.00
78297;DHT22;67555;47.660;19.622;2023-07-31T07:45:20;22.30;60.90
78297;DHT22;67555;47.660;19.622;2023-07-31T07:47:46;22.30;61.20
78297;DHT22;67555;47.660;19.622;2023-07-31T07:50:11;22.30;61.60
78297;DHT22;67555;47.660;19.622;2023-07-31T07:52:37;22.50;60.80
78297;DHT22;67555;47.660;19.622;2023-07-31T07:55:03;22.50;60.50
78297;DHT22;67555;47.660;19.622;2023-07-31T07:57:29;22.50;60.70
78297;DHT22;67555;47.660;19.622;2023-07-31T07:59:55;22.50;60.50
78297;DHT22;67555;47.660;19.622;2023-07-31T08:02:22;22.50;60.60
78297;DHT22;67555;47.660;19.622;2023-07-31T08:04:48;22.50;60.00
78297;DHT22;67555;47.660;19.622;2023-07-31T08:07:14;22.50;59.10
78297;DHT22;67555;47.660;19.622;2023-07-31T08:09:40;22.50;59.40
78297;DHT22;67555;47.660;19.622;2023-07-31T08:12:06;22.50;59.20
78297;DHT22;67555;47.660;19.622;2023-07-31T08:14:32;22.60;58.80
78297;DHT22;67555;47.660;19.622;2023-07-31T08:16:58;22.60;58.10
78297;DHT22;67555;47.660;19.622;2023-07-31T08:19:24;22.60;57.80
78297;DHT22;67555;47.660;19.622;2023-07-31T08:21:50;22.60;57.80
78297;DHT22;67555;47.660;19.622;2023-07-31T08:24:16;22.60;57.30
78297;DHT22;67555;47.660;19.622;2023-07-31T08:26:42;22.70;56.60
78297;DHT22;67555;47.660;19.622;2023-07-31T08:29:07;22.80;55.00
78297;DHT22;67555;47.660;19.622;2023-07-31T08:31:33;22.90;50.80
78297;DHT22;67555;47.660;19.622;2023-07-31T08:34:00;23.00;50.90
78297;DHT22;67555;47.660;19.622;2023-07-31T08:36:26;23.20;50.70
78297;DHT22;67555;47.660;19.622;2023-07-31T08:38:52;23.30;49.30
78297;DHT22;67555;47.660;19.622;2023-07-31T08:41:19;23.30;48.80
78297;DHT22;67555;47.660;19.622;2023-07-31T08:43:50;23.30;48.70
78297;DHT22;67555;47.660;19.622;2023-07-31T08:46:17;23.30;48.70
78297;DHT22;67555;47.660;19.622;2023-07-31T08:48:44;23.30;48.70
78297;DHT22;67555;47.660;19.622;2023-07-31T08:51:11;23.40;48.20
78297;DHT22;67555;47.660;19.622;2023-07-31T08:53:36;23.40;47.90
78297;DHT22;67555;47.660;19.622;2023-07-31T08:56:02;23.50;47.00
78297;DHT22;67555;47.660;19.622;2023-07-31T08:58:32;23.60;48.00
78297;DHT22;67555;47.660;19.622;2023-07-31T09:01:01;23.80;47.30
78297;DHT22;67555;47.660;19.622;2023-07-31T09:03:33;24.00;45.70
78297;DHT22;67555;47.660;19.622;2023-07-31T09:05:59;24.00;45.50
78297;DHT22;67555;47.660;19.622;2023-07-31T09:08:26;24.00;44.90
78297;DHT22;67555;47.660;19.622;2023-07-31T09:10:59;24.00;44.90
78297;DHT22;67555;47.660;19.622;2023-07-31T09:13:28;24.00;45.10
78297;DHT22;67555;47.660;19.622;2023-07-31T09:15:53;24.00;44.20
78297;DHT22;67555;47.660;19.622;2023-07-31T09:18:19;24.10;44.20
78297;DHT22;67555;47.660;19.622;2023-07-31T09:21:01;24.20;44.70
78297;DHT22;67555;47.660;19.622;2023-07-31T09:23:43;24.20;43.90
78297;DHT22;67555;47.660;19.622;2023-07-31T09:26:10;24.30;44.00
78297;DHT22;67555;47.660;19.622;2023-07-31T09:28:36;24.40;43.80
78297;DHT22;67555;47.660;19.622;2023-07-31T09:31:01;24.50;43.80
78297;DHT22;67555;47.660;19.622;2023-07-31T09:33:27;24.50;43.60
78297;DHT22;67555;47.660;19.622;2023-07-31T09:35:53;24.60;43.40
78297;DHT22;67555;47.660;19.622;2023-07-31T09:38:19;24.60;44.00
78297;DHT22;67555;47.660;19.622;2023-07-31T09:40:47;24.50;44.70
78297;DHT22;67555;47.660;19.622;2023-07-31T09:43:17;24.50;44.50
78297;DHT22;67555;47.660;19.622;2023-07-31T09:45:44;24.50;45.30
78297;DHT22;67555;47.660;19.622;2023-07-31T09:48:15;24.50;46.10
78297;DHT22;67555;47.660;19.622;2023-07-31T09:50:43;24.50;46.70
78297;DHT22;67555;47.660;19.622;2023-07-31T09:53:09;24.60;47.10
78297;DHT22;67555;47.660;19.622;2023-07-31T09:55:36;24.70;45.50
78297;DHT22;67555;47.660;19.622;2023-07-31T09:58:07;24.80;45.90
78297;DHT22;67555;47.660;19.622;2023-07-31T10:00:33;24.80;45.90
78297;DHT22;67555;47.660;19.622;2023-07-31T10:03:05;24.70;46.40
78297;DHT22;67555;47.660;19.622;2023-07-31T10:05:35;24.70;46.40
78297;DHT22;67555;47.660;19.622;2023-07-31T10:08:01;24.90;46.70
78297;DHT22;67555;47.660;19.622;2023-07-31T10:10:28;25.00;45.30
78297;DHT22;67555;47.660;19.622;2023-07-31T10:12:55;25.00;45.10
78297;DHT22;67555;47.660;19.622;2023-07-31T10:15:21;25.00;45.60
78297;DHT22;67555;47.660;19.622;2023-07-31T10:17:48;25.00;45.80
78297;DHT22;67555;47.660;19.622;2023-07-31T10:20:15;25.00;45.80
78297;DHT22;67555;47.660;19.622;2023-07-31T10:22:44;25.10;45.50
78297;DHT22;67555;47.660;19.622;2023-07-31T10:25:13;25.20;45.00
78297;DHT22;67555;47.660;19.622;2023-07-31T10:27:40;25.20;44.30
78297;DHT22;67555;47.660;19.622;2023-07-31T10:30:09;25.20;44.20
78297;DHT22;67555;47.660;19.622;2023-07-31T10:32:38;25.20;44.20
78297;DHT22;67555;47.660;19.622;2023-07-31T10:35:05;25.20;44.30
78297;DHT22;67555;47.660;19.622;2023-07-31T10:37:41;25.20;44.80
78297;DHT22;67555;47.660;19.622;2023-07-31T10:40:23;25.30;44.20
78297;DHT22;67555;47.660;19.622;2023-07-31T10:42:54;25.40;43.80
78297;DHT22;67555;47.660;19.622;2023-07-31T10:45:33;25.40;43.60
78297;DHT22;67555;47.660;19.622;2023-07-31T10:48:15;25.40;43.40
78297;DHT22;67555;47.660;19.622;2023-07-31T10:50:52;25.40;42.80
78297;DHT22;67555;47.660;19.622;2023-07-31T10:53:31;25.40;43.00
78297;DHT22;67555;47.660;19.622;2023-07-31T10:56:10;25.40;42.90
78297;DHT22;67555;47.660;19.622;2023-07-31T10:58:44;25.40;43.20
78297;DHT22;67555;47.660;19.622;2023-07-31T11:01:11;25.50;42.80
78297;DHT22;67555;47.660;19.622;2023-07-31T11:03:47;25.50;42.80
78297;DHT22;67555;47.660;19.622;2023-07-31T11:06:22;25.50;43.20
78297;DHT22;67555;47.660;19.622;2023-07-31T11:08:50;25.60;42.90
78297;DHT22;67555;47.660;19.622;2023-07-31T11:11:17;25.60;42.20
78297;DHT22;67555;47.660;19.622;2023-07-31T11:16:24;25.80;42.70
78297;DHT22;67555;47.660;19.622;2023-07-31T11:18:51;25.80;43.10
78297;DHT22;67555;47.660;19.622;2023-07-31T11:21:23;25.80;43.20
78297;DHT22;67555;47.660;19.622;2023-07-31T11:23:57;26.00;42.60
78297;DHT22;67555;47.660;19.622;2023-07-31T11:26:24;26.00;42.50
78297;DHT22;67555;47.660;19.622;2023-07-31T11:28:51;25.80;42.20
78297;DHT22;67555;47.660;19.622;2023-07-31T11:31:17;25.80;42.10
78297;DHT22;67555;47.660;19.622;2023-07-31T11:33:44;25.70;42.50
78297;DHT22;67555;47.660;19.622;2023-07-31T11:36:20;25.80;42.00
78297;DHT22;67555;47.660;19.622;2023-07-31T11:38:46;25.80;42.00
78297;DHT22;67555;47.660;19.622;2023-07-31T11:41:14;25.80;41.80
78297;DHT22;67555;47.660;19.622;2023-07-31T11:43:41;25.80;42.10
78297;DHT22;67555;47.660;19.622;2023-07-31T11:46:07;25.80;41.40
78297;DHT22;67555;47.660;19.622;2023-07-31T11:48:35;25.70;41.50
78297;DHT22;67555;47.660;19.622;2023-07-31T11:51:09;25.70;41.70
78297;DHT22;67555;47.660;19.622;2023-07-31T11:56:13;25.80;42.40
78297;DHT22;67555;47.660;19.622;2023-07-31T11:58:39;25.80;41.90
78297;DHT22;67555;47.660;19.622;2023-07-31T12:01:06;25.80;41.70
78297;DHT22;67555;47.660;19.622;2023-07-31T12:03:33;25.70;41.30
78297;DHT22;67555;47.660;19.622;2023-07-31T12:06:00;25.80;41.50
78297;DHT22;67555;47.660;19.622;2023-07-31T12:08:25;25.80;41.00
78297;DHT22;67555;47.660;19.622;2023-07-31T12:10:52;25.80;40.90
78297;DHT22;67555;47.660;19.622;2023-07-31T12:13:23;25.80;40.80
78297;DHT22;67555;47.660;19.622;2023-07-31T12:15:57;25.80;40.70
78297;DHT22;67555;47.660;19.622;2023-07-31T12:18:25;25.80;40.70
78297;DHT22;67555;47.660;19.622;2023-07-31T12:20:56;26.00;40.20
78297;DHT22;67555;47.660;19.622;2023-07-31T12:23:26;26.00;39.60
78297;DHT22;67555;47.660;19.622;2023-07-31T12:28:30;26.00;39.80
78297;DHT22;67555;47.660;19.622;2023-07-31T12:31:00;26.00;40.30
78297;DHT22;67555;47.660;19.622;2023-07-31T12:33:32;26.20;40.30
78297;DHT22;67555;47.660;19.622;2023-07-31T12:36:00;26.30;40.00
78297;DHT22;67555;47.660;19.622;2023-07-31T12:38:26;26.40;39.70
78297;DHT22;67555;47.660;19.622;2023-07-31T12:40:51;26.50;39.20
78297;DHT22;67555;47.660;19.622;2023-07-31T12:43:17;26.60;38.70
78297;DHT22;67555;47.660;19.622;2023-07-31T12:45:43;26.90;38.70
78297;DHT22;67555;47.660;19.622;2023-07-31T12:48:09;27.00;37.60
78297;DHT22;67555;47.660;19.622;2023-07-31T12:50:35;27.10;37.00
78297;DHT22;67555;47.660;19.622;2023-07-31T12:53:02;27.20;37.10
78297;DHT22;67555;47.660;19.622;2023-07-31T12:55:28;27.30;36.80
78297;DHT22;67555;47.660;19.622;2023-07-31T12:57:55;27.50;37.20
78297;DHT22;67555;47.660;19.622;2023-07-31T13:00:21;27.80;37.20
78297;DHT22;67555;47.660;19.622;2023-07-31T13:02:47;28.00;37.00
78297;DHT22;67555;47.660;19.622;2023-07-31T13:05:13;28.10;37.30
78297;DHT22;67555;47.660;19.622;2023-07-31T13:07:40;28.50;36.50
78297;DHT22;67555;47.660;19.622;2023-07-31T13:10:08;28.50;36.10
78297;DHT22;67555;47.660;19.622;2023-07-31T13:12:34;28.50;34.70
78297;DHT22;67555;47.660;19.622;2023-07-31T13:14:59;28.30;34.90
78297;DHT22;67555;47.660;19.622;2023-07-31T13:17:25;28.30;35.10
78297;DHT22;67555;47.660;19.622;2023-07-31T13:19:52;28.10;35.20
78297;DHT22;67555;47.660;19.622;2023-07-31T13:22:17;28.00;35.10
78297;DHT22;67555;47.660;19.622;2023-07-31T13:24:43;27.90;35.30
78297;DHT22;67555;47.660;19.622;2023-07-31T13:27:09;27.60;35.30
78297;DHT22;67555;47.660;19.622;2023-07-31T13:29:40;27.50;36.20
78297;DHT22;67555;47.660;19.622;2023-07-31T13:32:05;27.30;36.20
78297;DHT22;67555;47.660;19.622;2023-07-31T13:34:32;27.20;35.60
78297;DHT22;67555;47.660;19.622;2023-07-31T13:36:58;27.00;35.80
78297;DHT22;67555;47.660;19.622;2023-07-31T13:39:24;26.90;35.70
78297;DHT22;67555;47.660;19.622;2023-07-31T13:41:49;26.80;35.70
78297;DHT22;67555;47.660;19.622;2023-07-31T13:44:15;26.80;35.70
78297;DHT22;67555;47.660;19.622;2023-07-31T13:46:41;26.70;34.80
78297;DHT22;67555;47.660;19.622;2023-07-31T13:49:06;26.70;35.10
78297;DHT22;67555;47.660;19.622;2023-07-31T13:51:32;26.70;35.60
78297;DHT22;67555;47.660;19.622;2023-07-31T13:53:58;26.70;35.90
78297;DHT22;67555;47.660;19.622;2023-07-31T13:56:23;26.70;35.90
78297;DHT22;67555;47.660;19.622;2023-07-31T13:58:49;26.70;35.60
78297;DHT22;67555;47.660;19.622;2023-07-31T14:01:16;26.70;35.90
78297;DHT22;67555;47.660;19.622;2023-07-31T14:03:42;26.70;35.30
78297;DHT22;67555;47.660;19.622;2023-07-31T14:06:08;26.80;35.40
78297;DHT22;67555;47.660;19.622;2023-07-31T14:08:33;26.80;35.40
78297;DHT22;67555;47.660;19.622;2023-07-31T14:10:59;26.80;35.70
78297;DHT22;67555;47.660;19.622;2023-07-31T14:13:25;26.80;35.90
78297;DHT22;67555;47.660;19.622;2023-07-31T14:15:51;26.90;36.00
78297;DHT22;67555;47.660;19.622;2023-07-31T14:18:17;26.80;35.50
78297;DHT22;67555;47.660;19.622;2023-07-31T14:20:43;26.80;35.90
78297;DHT22;67555;47.660;19.622;2023-07-31T14:23:08;26.80;35.80
78297;DHT22;67555;47.660;19.622;2023-07-31T14:25:34;26.90;35.40
78297;DHT22;67555;47.660;19.622;2023-07-31T14:28:00;26.80;35.70
78297;DHT22;67555;47.660;19.622;2023-07-31T14:30:25;26.90;35.80
78297;DHT22;67555;47.660;19.622;2023-07-31T14:32:51;26.90;35.50
78297;DHT22;67555;47.660;19.622;2023-07-31T14:35:18;26.90;35.70
78297;DHT22;67555;47.660;19.622;2023-07-31T14:37:46;26.90;35.40
78297;DHT22;67555;47.660;19.622;2023-07-31T14:40:12;26.80;35.50
78297;DHT22;67555;47.660;19.622;2023-07-31T14:42:39;26.80;35.80
78297;DHT22;67555;47.660;19.622;2023-07-31T14:45:07;26.90;36.20
78297;DHT22;67555;47.660;19.622;2023-07-31T14:47:33;26.90;36.10
78297;DHT22;67555;47.660;19.622;2023-07-31T14:49:59;26.80;36.40
78297;DHT22;67555;47.660;19.622;2023-07-31T14:52:25;26.80;35.80
78297;DHT22;67555;47.660;19.622;2023-07-31T14:54:51;26.70;36.10
78297;DHT22;67555;47.660;19.622;2023-07-31T14:57:17;26.70;36.00
78297;DHT22;67555;47.660;19.622;2023-07-31T14:59:43;26.60;36.40
78297;DHT22;67555;47.660;19.622;2023-07-31T15:02:09;26.70;36.20
78297;DHT22;67555;47.660;19.622;2023-07-31T15:04:35;26.70;36.00
78297;DHT22;67555;47.660;19.622;2023-07-31T15:07:01;26.70;35.90
78297;DHT22;67555;47.660;19.622;2023-07-31T15:09:27;26.70;36.10
78297;DHT22;67555;47.660;19.622;2023-07-31T15:11:56;26.70;36.00
78297;DHT22;67555;47.660;19.622;2023-07-31T15:14:22;26.70;35.90
78297;DHT22;67555;47.660;19.622;2023-07-31T15:16:47;26.80;36.00
78297;DHT22;67555;47.660;19.622;2023-07-31T15:19:14;26.80;36.20
78297;DHT22;67555;47.660;19.622;2023-07-31T15:21:40;26.80;36.40
78297;DHT22;67555;47.660;19.622;2023-07-31T15:24:06;26.90;36.00
78297;DHT22;67555;47.660;19.622;2023-07-31T15:26:32;26.90;35.70